createdAt,value
2023-09-05T00:02:07.015Z,26.50
2023-09-05T00:04:35.688Z,27.15
2023-09-05T00:07:03.580Z,26.59
2023-09-05T00:09:31.786Z,26.74
2023-09-05T00:12:02.424Z,26.80
2023-09-05T00:14:30.877Z,27.69
2023-09-05T00:16:58.816Z,27.53
2023-09-05T00:19:26.917Z,26.46
2023-09-05T00:21:55.170Z,27.03
2023-09-05T00:24:32.681Z,26.31
2023-09-05T00:27:03.975Z,26.22
2023-09-05T00:29:32.413Z,26.41
2023-09-05T00:32:01.127Z,25.05
2023-09-05T00:34:29.547Z,25.13
2023-09-05T00:36:59.362Z,24.93
2023-09-05T00:39:27.910Z,25.30
2023-09-05T00:41:56.821Z,25.62
2023-09-05T00:44:26.376Z,25.78
2023-09-05T00:46:56.390Z,26.26
2023-09-05T00:49:28.843Z,26.01
2023-09-05T00:51:59.718Z,25.47
2023-09-05T00:54:28.227Z,24.89
2023-09-05T00:56:56.502Z,24.96
2023-09-05T00:59:24.436Z,24.44
2023-09-05T01:01:57.820Z,24.76
2023-09-05T01:04:25.826Z,25.80
2023-09-05T01:06:58.739Z,26.45
2023-09-05T01:09:37.722Z,26.50
2023-09-05T01:12:07.500Z,26.85
2023-09-05T01:14:35.971Z,26.55
2023-09-05T01:17:06.646Z,26.89
2023-09-05T01:19:37.076Z,26.70
2023-09-05T01:22:21.035Z,26.66
2023-09-05T01:24:52.151Z,26.90
2023-09-05T01:27:23.734Z,26.70
2023-09-05T01:29:52.806Z,26.55
2023-09-05T01:32:24.739Z,26.45
2023-09-05T01:34:52.773Z,26.28
2023-09-05T01:37:20.891Z,26.18
2023-09-05T01:39:49.197Z,25.35
2023-09-05T01:42:18.642Z,25.58
2023-09-05T01:44:46.718Z,26.59
2023-09-05T01:47:14.683Z,26.83
2023-09-05T01:49:42.498Z,26.90
2023-09-05T01:52:12.938Z,26.09
2023-09-05T01:54:42.495Z,25.45
2023-09-05T01:57:10.510Z,25.78
2023-09-05T01:59:39.884Z,25.17
2023-09-05T02:02:08.054Z,26.32
2023-09-05T02:04:36.480Z,26.04
2023-09-05T02:07:05.298Z,26.27
2023-09-05T02:09:36.382Z,25.84
2023-09-05T02:12:07.227Z,25.09
2023-09-05T02:14:36.426Z,26.18
2023-09-05T02:17:06.180Z,26.29
2023-09-05T02:19:34.214Z,25.94
2023-09-05T02:22:03.621Z,25.84
2023-09-05T02:24:31.606Z,25.75
2023-09-05T02:26:59.592Z,25.64
2023-09-05T02:29:29.336Z,26.00
2023-09-05T02:31:57.250Z,25.81
2023-09-05T02:34:26.456Z,26.04
2023-09-05T02:36:56.020Z,26.09
2023-09-05T02:39:24.110Z,25.04
2023-09-05T02:41:52.086Z,25.58
2023-09-05T02:44:20.107Z,25.53
2023-09-05T02:46:49.487Z,26.18
2023-09-05T02:49:17.572Z,26.52
2023-09-05T02:51:47.224Z,26.30
2023-09-05T02:54:15.219Z,26.41
2023-09-05T02:56:43.279Z,26.63
2023-09-05T02:59:11.188Z,26.81
2023-09-05T03:01:39.129Z,26.95
2023-09-05T03:04:07.486Z,26.82
2023-09-05T03:06:39.042Z,26.31
2023-09-05T03:09:10.672Z,25.07
2023-09-05T03:11:40.646Z,25.89
2023-09-05T03:14:09.365Z,25.40
2023-09-05T03:16:38.574Z,25.22
2023-09-05T03:19:06.807Z,25.97
2023-09-05T03:21:34.714Z,25.76
2023-09-05T03:24:05.868Z,25.51
2023-09-05T03:26:35.477Z,25.24
2023-09-05T03:29:03.579Z,25.69
2023-09-05T03:31:31.869Z,25.80
2023-09-05T03:34:00.096Z,26.11
2023-09-05T03:36:30.462Z,25.47
2023-09-05T03:38:58.378Z,24.98
2023-09-05T03:41:26.713Z,25.38
2023-09-05T03:43:56.103Z,25.41
2023-09-05T03:46:24.370Z,24.63
2023-09-05T03:48:54.272Z,25.00
2023-09-05T03:51:21.338Z,25.05
2023-09-05T03:53:50.794Z,24.45
2023-09-05T03:56:19.021Z,24.49
2023-09-05T03:58:47.139Z,24.45
2023-09-05T04:01:17.169Z,24.92
2023-09-05T04:03:46.818Z,24.93
2023-09-05T04:06:15.074Z,24.63
2023-09-05T04:08:43.011Z,25.57
2023-09-05T04:11:10.858Z,25.52
2023-09-05T04:13:38.924Z,24.86
2023-09-05T04:16:07.627Z,25.27
2023-09-05T04:18:36.857Z,24.85
2023-09-05T04:21:05.266Z,25.10
2023-09-05T04:23:33.638Z,24.82
2023-09-05T04:26:03.362Z,25.28
2023-09-05T04:28:32.557Z,25.20
2023-09-05T04:31:04.573Z,25.35
2023-09-05T04:33:38.780Z,25.25
2023-09-05T04:36:11.134Z,24.57
2023-09-05T04:38:41.332Z,25.11
2023-09-05T04:41:10.146Z,25.76
2023-09-05T04:43:38.628Z,25.31
2023-09-05T04:46:11.544Z,25.54
2023-09-05T04:48:40.781Z,25.42
2023-09-05T04:51:11.553Z,25.77
2023-09-05T04:53:41.124Z,25.51
2023-09-05T04:56:09.211Z,25.85
2023-09-05T04:58:38.969Z,26.28
2023-09-05T05:01:09.014Z,26.48
2023-09-05T05:03:39.887Z,26.55
2023-09-05T05:06:12.968Z,26.19
2023-09-05T05:08:42.578Z,26.55
2023-09-05T05:11:10.793Z,26.68
2023-09-05T05:13:40.057Z,26.82
2023-09-05T05:16:09.876Z,26.45
2023-09-05T05:18:39.804Z,26.89
2023-09-05T05:21:07.654Z,25.65
2023-09-05T05:23:40.871Z,26.80
2023-09-05T05:26:09.652Z,26.96
2023-09-05T05:28:43.193Z,26.49
2023-09-05T05:31:15.707Z,26.48
2023-09-05T05:33:44.472Z,26.42
2023-09-05T05:36:15.377Z,24.25
2023-09-05T05:38:45.921Z,23.83
2023-09-05T05:41:15.828Z,23.05
2023-09-05T05:43:45.038Z,23.27
2023-09-05T05:46:15.821Z,23.14
2023-09-05T05:48:44.082Z,23.90
2023-09-05T05:51:12.877Z,23.78
2023-09-05T05:53:43.483Z,23.24
2023-09-05T05:56:16.882Z,23.53
2023-09-05T05:58:45.698Z,23.70
2023-09-05T06:01:15.678Z,23.88
2023-09-05T06:03:45.725Z,24.11
2023-09-05T06:06:14.038Z,23.82
2023-09-05T06:08:44.342Z,23.92
2023-09-05T06:11:12.864Z,23.77
2023-09-05T06:13:42.066Z,24.09
2023-09-05T06:16:12.448Z,24.11
2023-09-05T06:18:43.033Z,24.32
2023-09-05T06:21:11.359Z,24.31
2023-09-05T06:23:39.276Z,24.56
2023-09-05T06:26:07.877Z,25.88
2023-09-05T06:28:37.273Z,25.18
2023-09-05T06:31:10.945Z,26.55
2023-09-05T06:33:39.894Z,25.38
2023-09-05T06:36:09.033Z,24.82
2023-09-05T06:38:37.911Z,25.21
2023-09-05T06:41:09.454Z,26.02
2023-09-05T06:43:38.516Z,26.12
2023-09-05T06:46:10.690Z,25.78
2023-09-05T06:48:41.337Z,25.09
2023-09-05T06:51:09.393Z,25.19
2023-09-05T06:53:39.271Z,25.97
2023-09-05T06:56:09.882Z,25.38
2023-09-05T06:58:37.787Z,26.00
2023-09-05T07:01:09.870Z,27.26
2023-09-05T07:03:39.870Z,27.40
2023-09-05T07:06:08.408Z,27.74
2023-09-05T07:08:36.515Z,27.93
2023-09-05T07:11:06.411Z,28.54
2023-09-05T07:13:34.645Z,28.74
2023-09-05T07:16:02.532Z,28.92
2023-09-05T07:18:31.827Z,28.92
2023-09-05T07:21:02.504Z,28.29
2023-09-05T07:23:31.045Z,28.00
2023-09-05T07:26:05.470Z,28.77
2023-09-05T07:28:33.777Z,28.48
2023-09-05T07:31:04.378Z,29.13
2023-09-05T07:33:38.904Z,29.69
2023-09-05T07:36:08.208Z,30.36
2023-09-05T07:38:36.364Z,30.79
2023-09-05T07:41:05.425Z,31.02
2023-09-05T07:43:37.073Z,30.41
2023-09-05T07:46:05.694Z,31.04
2023-09-05T07:48:33.620Z,31.15
2023-09-05T07:51:07.416Z,31.54
2023-09-05T07:53:38.826Z,31.73
2023-09-05T07:56:08.727Z,30.72
2023-09-05T07:58:37.707Z,32.17
2023-09-05T08:01:12.375Z,30.67
2023-09-05T08:03:43.490Z,33.07
2023-09-05T08:06:17.167Z,33.89
2023-09-05T08:08:46.782Z,32.70
2023-09-05T08:11:15.060Z,33.16
2023-09-05T08:13:45.305Z,33.35
2023-09-05T08:16:15.560Z,32.05
2023-09-05T08:18:46.089Z,33.57
2023-09-05T08:21:22.475Z,34.03
2023-09-05T08:23:51.775Z,32.13
2023-09-05T08:26:24.279Z,33.20
2023-09-05T08:28:53.750Z,34.21
2023-09-05T08:31:25.828Z,35.59
2023-09-05T08:33:57.243Z,35.08
2023-09-05T08:36:26.892Z,34.61
2023-09-05T08:39:05.061Z,35.39
2023-09-05T08:41:34.953Z,33.90
2023-09-05T08:44:06.738Z,34.95
2023-09-05T08:46:37.973Z,33.24
2023-09-05T08:49:11.533Z,31.92
2023-09-05T08:51:46.676Z,33.16
2023-09-05T08:54:20.614Z,34.02
2023-09-05T08:56:50.323Z,35.29
2023-09-05T08:59:23.262Z,34.39
2023-09-05T09:01:53.471Z,36.36
2023-09-05T09:04:23.248Z,35.24
2023-09-05T09:07:02.444Z,35.65
2023-09-05T09:09:37.531Z,35.25
2023-09-05T09:12:07.297Z,36.28
2023-09-05T09:14:35.426Z,37.57
2023-09-05T09:17:06.057Z,35.84
2023-09-05T09:19:37.203Z,36.55
2023-09-05T09:22:09.926Z,35.65
2023-09-05T09:24:40.486Z,34.55
2023-09-05T09:27:12.289Z,35.16
2023-09-05T09:29:43.906Z,36.54
2023-09-05T09:32:15.231Z,37.34
2023-09-05T09:34:47.340Z,37.45
2023-09-05T09:37:27.209Z,35.84
2023-09-05T09:40:00.020Z,35.75
2023-09-05T09:42:28.357Z,37.22
2023-09-05T09:45:00.902Z,36.48
2023-09-05T09:47:34.218Z,36.02
2023-09-05T09:50:04.889Z,35.17
2023-09-05T09:52:40.849Z,34.40
2023-09-05T09:55:13.710Z,35.92
2023-09-05T09:57:49.060Z,36.26
2023-09-05T10:00:20.391Z,38.01
2023-09-05T10:02:53.737Z,34.76
2023-09-05T10:05:26.715Z,35.55
2023-09-05T10:07:59.121Z,36.53
2023-09-05T10:10:28.273Z,36.69
2023-09-05T10:13:00.582Z,35.72
2023-09-05T10:15:33.497Z,36.23
2023-09-05T10:18:05.504Z,37.59
2023-09-05T10:20:37.459Z,36.64
2023-09-05T10:23:12.181Z,33.76
2023-09-05T10:25:41.953Z,36.16
2023-09-05T10:28:12.930Z,36.81
2023-09-05T10:30:45.510Z,34.87
2023-09-05T10:33:15.866Z,35.20
2023-09-05T10:35:46.908Z,35.21
2023-09-05T10:38:21.158Z,37.13
2023-09-05T10:40:51.487Z,36.82
2023-09-05T10:43:22.421Z,37.64
2023-09-05T10:45:58.789Z,36.84
2023-09-05T10:48:36.893Z,36.45
2023-09-05T10:51:11.802Z,35.80
2023-09-05T10:53:42.949Z,37.37
2023-09-05T10:56:42.166Z,37.14
2023-09-05T10:59:13.685Z,35.47
2023-09-05T11:01:55.131Z,35.85
2023-09-05T11:04:27.893Z,35.04
2023-09-05T11:07:03.851Z,36.34
2023-09-05T11:09:49.398Z,33.81
2023-09-05T11:12:20.250Z,37.65
2023-09-05T11:14:52.675Z,37.63
2023-09-05T11:17:21.267Z,38.45
2023-09-05T11:19:52.218Z,38.25
2023-09-05T11:22:24.390Z,39.74
2023-09-05T11:24:59.177Z,37.98
2023-09-05T11:27:33.759Z,38.26
2023-09-05T11:30:03.189Z,37.87
2023-09-05T11:32:33.295Z,38.45
2023-09-05T11:35:02.439Z,38.92
2023-09-05T11:37:31.364Z,38.98
2023-09-05T11:40:14.557Z,35.29
2023-09-05T11:42:45.633Z,34.07
2023-09-05T11:45:19.701Z,36.76
2023-09-05T11:47:49.368Z,38.15
2023-09-05T11:50:20.854Z,38.82
2023-09-05T11:52:53.864Z,38.94
2023-09-05T11:55:28.668Z,39.30
2023-09-05T11:58:00.147Z,38.63
2023-09-05T12:00:30.667Z,37.09
2023-09-05T12:03:01.427Z,39.57
2023-09-05T12:05:38.577Z,40.43
2023-09-05T12:08:18.679Z,40.68
2023-09-05T12:11:01.601Z,36.67
2023-09-05T12:13:40.083Z,38.31
2023-09-05T12:16:08.630Z,39.54
2023-09-05T12:18:36.524Z,35.23
2023-09-05T12:21:04.548Z,35.41
2023-09-05T12:23:32.972Z,35.90
2023-09-05T12:26:04.902Z,36.82
2023-09-05T12:28:33.984Z,39.16
2023-09-05T12:31:12.008Z,39.09
2023-09-05T12:33:40.717Z,40.21
2023-09-05T12:36:10.270Z,38.10
2023-09-05T12:38:39.222Z,39.02
2023-09-05T12:41:09.558Z,40.29
2023-09-05T12:43:37.913Z,39.39
2023-09-05T12:46:07.010Z,40.66
2023-09-05T12:48:36.766Z,39.73
2023-09-05T12:51:06.433Z,40.67
2023-09-05T12:53:37.834Z,37.66
2023-09-05T12:56:10.450Z,40.56
2023-09-05T12:58:38.798Z,39.93
2023-09-05T13:01:08.281Z,40.95
2023-09-05T13:03:38.779Z,38.06
2023-09-05T13:06:08.756Z,38.59
2023-09-05T13:08:38.133Z,39.81
2023-09-05T13:11:06.188Z,39.68
2023-09-05T13:13:36.720Z,41.14
2023-09-05T13:16:07.016Z,39.28
2023-09-05T13:18:37.066Z,40.72
2023-09-05T13:21:07.126Z,40.90
2023-09-05T13:23:36.764Z,39.49
2023-09-05T13:26:07.834Z,38.98
2023-09-05T13:28:41.052Z,37.62
2023-09-05T13:31:11.036Z,39.12
2023-09-05T13:33:41.575Z,40.08
2023-09-05T13:36:10.229Z,40.57
2023-09-05T13:38:40.707Z,40.14
2023-09-05T13:41:09.927Z,39.59
2023-09-05T13:43:39.277Z,38.78
2023-09-05T13:46:14.043Z,39.05
2023-09-05T13:48:42.889Z,39.32
2023-09-05T13:51:12.534Z,40.61
2023-09-05T13:53:43.019Z,36.98
2023-09-05T13:56:13.729Z,37.00
2023-09-05T13:58:43.553Z,35.14
2023-09-05T14:01:14.262Z,34.92
2023-09-05T14:03:42.255Z,34.99
2023-09-05T14:06:14.446Z,37.49
2023-09-05T14:08:44.601Z,37.71
2023-09-05T14:11:13.754Z,36.21
2023-09-05T14:13:46.705Z,38.19
2023-09-05T14:16:20.023Z,35.84
2023-09-05T14:18:50.616Z,36.19
2023-09-05T14:21:25.650Z,36.17
2023-09-05T14:23:54.237Z,35.50
2023-09-05T14:26:22.054Z,36.39
2023-09-05T14:28:51.296Z,37.61
2023-09-05T14:31:23.142Z,36.23
2023-09-05T14:33:51.509Z,37.02
2023-09-05T14:36:19.656Z,35.15
2023-09-05T14:38:50.899Z,37.29
2023-09-05T14:41:18.802Z,36.34
2023-09-05T14:43:47.705Z,36.24
2023-09-05T14:46:19.938Z,34.85
2023-09-05T14:48:51.409Z,34.11
2023-09-05T14:51:19.494Z,34.67
2023-09-05T14:53:48.576Z,34.14
2023-09-05T14:56:20.151Z,34.29
2023-09-05T14:58:49.229Z,36.16
2023-09-05T15:01:21.215Z,34.68
2023-09-05T15:03:49.924Z,36.33
2023-09-05T15:06:18.148Z,35.83
2023-09-05T15:08:49.428Z,35.93
2023-09-05T15:11:17.606Z,36.07
2023-09-05T15:13:47.857Z,37.26
2023-09-05T15:16:17.251Z,36.56
2023-09-05T15:18:47.161Z,36.83
2023-09-05T15:21:16.931Z,36.61
2023-09-05T15:23:47.052Z,37.24
2023-09-05T15:26:17.453Z,37.44
2023-09-05T15:28:47.061Z,36.41
2023-09-05T15:31:17.410Z,37.12
2023-09-05T15:33:49.790Z,37.22
2023-09-05T15:36:21.282Z,36.64
2023-09-05T15:38:52.522Z,36.96
2023-09-05T15:41:23.642Z,36.78
2023-09-05T15:43:53.005Z,35.99
2023-09-05T15:46:21.488Z,36.75
2023-09-05T15:48:53.312Z,36.86
2023-09-05T15:51:24.120Z,36.49
2023-09-05T15:53:52.489Z,35.88
2023-09-05T15:56:21.228Z,35.85
2023-09-05T15:58:50.901Z,35.75
2023-09-05T16:01:19.374Z,35.13
2023-09-05T16:03:49.681Z,34.04
2023-09-05T16:06:22.298Z,33.54
2023-09-05T16:08:51.402Z,34.14
2023-09-05T16:11:21.613Z,35.61
2023-09-05T16:13:50.976Z,34.86
2023-09-05T16:16:21.865Z,35.92
2023-09-05T16:18:53.093Z,35.82
2023-09-05T16:21:25.625Z,35.66
2023-09-05T16:23:55.023Z,34.99
2023-09-05T16:26:24.261Z,33.95
2023-09-05T16:28:53.557Z,34.74
2023-09-05T16:31:22.509Z,33.67
2023-09-05T16:33:54.974Z,35.41
2023-09-05T16:36:25.716Z,34.83
2023-09-05T16:38:57.150Z,33.73
2023-09-05T16:41:31.913Z,34.46
2023-09-05T16:44:02.234Z,34.03
2023-09-05T16:46:32.556Z,33.09
2023-09-05T16:49:02.362Z,34.15
2023-09-05T16:51:36.071Z,33.36
2023-09-05T16:54:08.626Z,33.71
2023-09-05T16:56:38.117Z,33.97
2023-09-05T16:59:07.467Z,34.08
2023-09-05T17:01:35.559Z,32.89
2023-09-05T17:04:03.586Z,32.91
2023-09-05T17:06:35.548Z,33.87
2023-09-05T17:09:06.405Z,34.14
2023-09-05T17:11:37.299Z,34.39
2023-09-05T17:14:05.573Z,33.91
2023-09-05T17:16:33.545Z,33.20
2023-09-05T17:19:02.225Z,33.07
2023-09-05T17:21:31.972Z,32.57
2023-09-05T17:24:03.105Z,33.22
2023-09-05T17:26:32.834Z,33.16
2023-09-05T17:29:02.434Z,33.23
2023-09-05T17:31:32.368Z,33.87
2023-09-05T17:34:02.849Z,33.09
2023-09-05T17:36:33.414Z,33.60
2023-09-05T17:39:03.468Z,33.43
2023-09-05T17:41:33.863Z,33.43
2023-09-05T17:44:03.673Z,32.32
2023-09-05T17:46:33.484Z,31.60
2023-09-05T17:49:02.559Z,31.60
2023-09-05T17:51:33.371Z,32.98
2023-09-05T17:54:02.878Z,32.49
2023-09-05T17:56:33.075Z,32.45
2023-09-05T17:59:02.867Z,32.09
2023-09-05T18:01:31.824Z,32.71
2023-09-05T18:04:00.925Z,31.69
2023-09-05T18:06:29.965Z,32.15
2023-09-05T18:09:01.975Z,31.83
2023-09-05T18:11:30.765Z,31.68
2023-09-05T18:14:01.600Z,31.54
2023-09-05T18:16:29.936Z,31.69
2023-09-05T18:18:58.534Z,31.58
2023-09-05T18:21:29.368Z,30.68
2023-09-05T18:23:57.928Z,30.60
2023-09-05T18:26:30.650Z,30.08
2023-09-05T18:28:58.969Z,29.72
2023-09-05T18:31:27.561Z,29.54
2023-09-05T18:33:56.033Z,29.71
2023-09-05T18:36:24.581Z,29.79
2023-09-05T18:38:59.617Z,29.84
2023-09-05T18:41:29.808Z,29.97
2023-09-05T18:43:58.885Z,30.41
2023-09-05T18:46:27.829Z,30.74
2023-09-05T18:49:03.801Z,30.93
2023-09-05T18:51:36.966Z,30.94
2023-09-05T18:54:06.319Z,31.35
2023-09-05T18:56:36.280Z,30.22
2023-09-05T18:59:06.357Z,29.61
2023-09-05T19:01:35.697Z,30.13
2023-09-05T19:04:04.593Z,29.05
2023-09-05T19:06:32.892Z,29.26
2023-09-05T19:09:05.582Z,29.40
2023-09-05T19:11:35.635Z,29.39
2023-09-05T19:14:04.943Z,28.59
2023-09-05T19:16:33.862Z,28.69
2023-09-05T19:19:02.483Z,28.43
2023-09-05T19:21:31.074Z,28.66
2023-09-05T19:23:59.222Z,28.51
2023-09-05T19:26:27.495Z,28.21
2023-09-05T19:28:56.806Z,28.28
2023-09-05T19:31:26.072Z,28.63
2023-09-05T19:33:54.997Z,28.73
2023-09-05T19:36:23.185Z,29.41
2023-09-05T19:38:51.245Z,29.71
2023-09-05T19:41:19.938Z,28.89
2023-09-05T19:43:50.007Z,29.11
2023-09-05T19:46:21.399Z,28.65
2023-09-05T19:48:49.623Z,28.28
2023-09-05T19:51:17.815Z,27.74
2023-09-05T19:53:45.804Z,27.49
2023-09-05T19:56:15.061Z,27.36
2023-09-05T19:58:43.035Z,27.72
2023-09-05T20:01:11.193Z,26.81
2023-09-05T20:03:41.400Z,27.80
2023-09-05T20:06:09.895Z,27.58
2023-09-05T20:08:39.100Z,27.26
2023-09-05T20:11:09.389Z,27.54
2023-09-05T20:13:37.359Z,28.47
2023-09-05T20:16:06.033Z,27.77
2023-09-05T20:18:34.178Z,27.62
2023-09-05T20:21:04.510Z,27.79
2023-09-05T20:23:32.390Z,28.72
2023-09-05T20:26:02.719Z,28.11
2023-09-05T20:28:32.335Z,28.67
2023-09-05T20:31:01.620Z,29.37
2023-09-05T20:33:29.825Z,29.85
2023-09-05T20:36:06.346Z,30.04
2023-09-05T20:38:36.815Z,29.82
2023-09-05T20:41:04.708Z,29.52
2023-09-05T20:43:34.546Z,28.07
2023-09-05T20:46:02.540Z,28.18
2023-09-05T20:48:30.903Z,27.36
2023-09-05T20:50:59.086Z,27.92
2023-09-05T20:53:28.409Z,27.04
2023-09-05T20:55:56.065Z,25.98
2023-09-05T20:58:24.004Z,26.83
2023-09-05T21:00:52.891Z,27.30
2023-09-05T21:03:21.185Z,28.46
2023-09-05T21:05:50.423Z,27.60
2023-09-05T21:08:23.380Z,28.15
2023-09-05T21:10:53.446Z,26.04
2023-09-05T21:13:21.470Z,26.00
2023-09-05T21:15:55.913Z,26.70
2023-09-05T21:18:24.246Z,26.54
2023-09-05T21:20:52.387Z,27.71
2023-09-05T21:23:20.313Z,26.80
2023-09-05T21:25:48.260Z,26.58
2023-09-05T21:28:17.602Z,26.63
2023-09-05T21:30:45.606Z,25.89
2023-09-05T21:33:13.554Z,26.74
2023-09-05T21:35:43.539Z,27.65
2023-09-05T21:38:11.665Z,27.48
2023-09-05T21:40:39.647Z,26.24
2023-09-05T21:43:08.331Z,26.86
2023-09-05T21:45:40.772Z,27.02
2023-09-05T21:48:10.877Z,26.27
2023-09-05T21:50:39.731Z,27.28
2023-09-05T21:53:07.795Z,27.00
2023-09-05T21:55:35.882Z,27.57
2023-09-05T21:58:03.783Z,26.80
2023-09-05T22:00:33.120Z,26.14
2023-09-05T22:03:04.188Z,26.60
2023-09-05T22:05:32.603Z,25.75
2023-09-05T22:08:00.543Z,25.74
2023-09-05T22:10:28.922Z,25.81
2023-09-05T22:12:59.257Z,24.62
2023-09-05T22:15:27.225Z,24.44
2023-09-05T22:17:58.338Z,24.83
2023-09-05T22:22:57.973Z,24.89
2023-09-05T22:25:28.186Z,24.87
2023-09-05T22:27:56.543Z,24.31
2023-09-05T22:30:24.764Z,23.75
2023-09-05T22:32:53.001Z,23.27
2023-09-05T22:35:20.991Z,24.28
2023-09-05T22:37:50.253Z,25.34
2023-09-05T22:40:19.050Z,25.00
2023-09-05T22:42:48.191Z,24.64
2023-09-05T22:45:16.954Z,23.49
2023-09-05T22:47:46.383Z,23.53
2023-09-05T22:50:14.378Z,24.43
2023-09-05T22:52:43.195Z,23.51
2023-09-05T22:55:13.718Z,24.83
2023-09-05T22:57:43.634Z,25.03
2023-09-05T23:00:15.538Z,25.81
2023-09-05T23:02:44.763Z,24.23
2023-09-05T23:05:13.910Z,25.38
2023-09-05T23:07:42.795Z,24.45
2023-09-05T23:10:12.959Z,24.50
2023-09-05T23:12:41.551Z,24.69
2023-09-05T23:15:10.174Z,24.15
2023-09-05T23:17:38.311Z,24.99
2023-09-05T23:20:09.607Z,25.33
2023-09-05T23:22:37.622Z,24.31
2023-09-05T23:25:08.995Z,24.03
2023-09-05T23:27:38.637Z,23.76
2023-09-05T23:30:08.844Z,23.59
2023-09-05T23:32:38.533Z,22.81
2023-09-05T23:35:07.701Z,23.46
2023-09-05T23:37:35.694Z,23.47
2023-09-05T23:40:13.364Z,23.30
2023-09-05T23:42:43.450Z,23.70
2023-09-05T23:45:16.146Z,24.42
2023-09-05T23:47:48.394Z,23.53
2023-09-05T23:50:17.095Z,24.77
2023-09-05T23:52:45.077Z,25.33
2023-09-05T23:55:13.118Z,25.32
2023-09-05T23:57:42.584Z,25.09
